Main page
METAR-TAF:

METAR-TAF

Airports :

Kadala Airport

Chita, Russia

latitude: 52-05N, longitude: 113-29E, elevation: 685 m

Current weather observation

The report was made 28 minutes ago, at 23:00 UTC
Wind 10 kt from the West/Northwest, varying between West and North/Northwest
Temperature -8°C
Humidity 57%
Pressure 1013 hPa
Visibility 10 km or more

METAR: UIAA 212300Z 29005MPS 260V340 9999 NSC M08/M15 Q1013 R29/410150 NOSIG RMK QFE701/0935

Time: 08:28 (23:28 UTC)

Forecast

The report was made 3 hours and 28 minutes ago, at 20:00 UTC
Forecast valid from 21 at 21 UTC to 22 at 21 UTC
Wind 6 kt from the West/Northwest with gusts up to 17 kt
Visibility 10 km or more

TAF: UIAA 212000Z 2121/2221 29003G09MPS 9999 NSC

Weather observations and forecasts of more than 4000 airports (METAR and TAF reports).

The available stations are represented by yellow and red dots on the map.

Hover mouse over dot to see the name of the station.

Then click to see weather observations and forecasts.

To change the map : click on the green buttons with a black cross to zoom in, on the green button with a dash to zoom out, or on the green arrows for adjacent maps.


METAR-TAF: